GLD1793 NWWD-NWWB
Flight info
| Callsign | GLD1793 |
|---|---|
| Flight time | 0h 17m |
| Altitude | 7000 |
| Route | 211243S1645244E 211926S1645948E 212049S1650924E |
| Aircraft | BE58/M-SDFGIRY/S |
Departure
| Time | 2026-05-09 16:48 |
|---|---|
| Airport | Koné Airport (NWWD) |
Arrival
| Time | 2026-05-09 17:06 |
|---|---|
| Airport | Bourail - Poé Airport (NWWB) |
| Time | Latitude | Longitude | Altitude | Speed | Heading |
|---|---|---|---|---|---|
| 2026-05-09 16:47 | -21.05340 | 164.83761 | -4 ft | 0 kts | 100° |
| 2026-05-09 16:48 | -21.05391 | 164.84079 | -7 ft | 87 kts | 100° |
| 2026-05-09 16:48 | -21.05514 | 164.84882 | 141 ft | 120 kts | 98° |
| 2026-05-09 16:48 | -21.05705 | 164.85793 | 514 ft | 135 kts | 108° |
| 2026-05-09 16:48 | -21.06003 | 164.86761 | 993 ft | 144 kts | 115° |
| 2026-05-09 16:49 | -21.06462 | 164.87819 | 1102 ft | 167 kts | 118° |
| 2026-05-09 16:49 | -21.06970 | 164.88964 | 1356 ft | 173 kts | 117° |
| 2026-05-09 16:49 | -21.07628 | 164.90042 | 1579 ft | 174 kts | 137° |
| 2026-05-09 16:50 | -21.09487 | 164.91726 | 2029 ft | 176 kts | 138° |
| 2026-05-09 16:50 | -21.10381 | 164.92611 | 2249 ft | 177 kts | 144° |
| 2026-05-09 16:50 | -21.11536 | 164.92994 | 2471 ft | 176 kts | 177° |
| 2026-05-09 16:50 | -21.12754 | 164.93105 | 2696 ft | 176 kts | 175° |
| 2026-05-09 16:51 | -21.13970 | 164.93231 | 2917 ft | 175 kts | 176° |
| 2026-05-09 16:51 | -21.15178 | 164.93358 | 3142 ft | 175 kts | 176° |
| 2026-05-09 16:51 | -21.16405 | 164.93489 | 3365 ft | 177 kts | 176° |
| 2026-05-09 16:51 | -21.17639 | 164.93627 | 3579 ft | 178 kts | 176° |
| 2026-05-09 16:52 | -21.18878 | 164.93755 | 3836 ft | 177 kts | 176° |
| 2026-05-09 16:52 | -21.20086 | 164.93880 | 4168 ft | 172 kts | 176° |
| 2026-05-09 16:52 | -21.21263 | 164.93997 | 4510 ft | 169 kts | 175° |
| 2026-05-09 16:52 | -21.22435 | 164.94109 | 4847 ft | 168 kts | 176° |
| 2026-05-09 16:53 | -21.23629 | 164.94221 | 5005 ft | 180 kts | 176° |
| 2026-05-09 16:53 | -21.24896 | 164.94485 | 5012 ft | 193 kts | 155° |
| 2026-05-09 16:53 | -21.25940 | 164.95391 | 5016 ft | 200 kts | 137° |
| 2026-05-09 16:53 | -21.26948 | 164.96474 | 5018 ft | 205 kts | 136° |
| 2026-05-09 16:54 | -21.27951 | 164.97546 | 5018 ft | 207 kts | 136° |
| 2026-05-09 16:54 | -21.28964 | 164.98646 | 5017 ft | 208 kts | 133° |
| 2026-05-09 16:54 | -21.29634 | 165.00012 | 5017 ft | 209 kts | 109° |
| 2026-05-09 16:54 | -21.30052 | 165.01515 | 5017 ft | 210 kts | 108° |
| 2026-05-09 16:55 | -21.30445 | 165.03027 | 5014 ft | 211 kts | 107° |
| 2026-05-09 16:55 | -21.31063 | 165.04431 | 5010 ft | 209 kts | 131° |
| 2026-05-09 16:55 | -21.32096 | 165.05521 | 5012 ft | 208 kts | 136° |
| 2026-05-09 16:55 | -21.33058 | 165.06683 | 5017 ft | 210 kts | 130° |
| 2026-05-09 16:56 | -21.33949 | 165.07919 | 5013 ft | 210 kts | 129° |
| 2026-05-09 16:56 | -21.34843 | 165.09168 | 5012 ft | 210 kts | 130° |
| 2026-05-09 16:56 | -21.35743 | 165.10400 | 5006 ft | 209 kts | 130° |
| 2026-05-09 16:56 | -21.36642 | 165.11631 | 5005 ft | 209 kts | 130° |
| 2026-05-09 16:57 | -21.37536 | 165.12858 | 5006 ft | 209 kts | 130° |
| 2026-05-09 16:57 | -21.38435 | 165.14090 | 5005 ft | 209 kts | 130° |
| 2026-05-09 16:57 | -21.39328 | 165.15318 | 5009 ft | 209 kts | 130° |
| 2026-05-09 16:57 | -21.40214 | 165.16534 | 5011 ft | 209 kts | 130° |
| 2026-05-09 16:58 | -21.41111 | 165.17765 | 5011 ft | 210 kts | 130° |
| 2026-05-09 16:58 | -21.42011 | 165.19001 | 5012 ft | 210 kts | 130° |
| 2026-05-09 16:58 | -21.42914 | 165.20242 | 5013 ft | 209 kts | 130° |
| 2026-05-09 16:58 | -21.43810 | 165.21472 | 5010 ft | 209 kts | 130° |
| 2026-05-09 16:59 | -21.44707 | 165.22708 | 5009 ft | 209 kts | 130° |
| 2026-05-09 16:59 | -21.45596 | 165.23927 | 5006 ft | 208 kts | 130° |
| 2026-05-09 16:59 | -21.46489 | 165.25153 | 5007 ft | 208 kts | 130° |
| 2026-05-09 16:59 | -21.47359 | 165.26353 | 4997 ft | 194 kts | 129° |
| 2026-05-09 17:00 | -21.48202 | 165.27515 | 4998 ft | 202 kts | 129° |
| 2026-05-09 17:00 | -21.49080 | 165.28719 | 5004 ft | 207 kts | 129° |
| 2026-05-09 17:00 | -21.49966 | 165.29938 | 5002 ft | 199 kts | 129° |
| 2026-05-09 17:00 | -21.50761 | 165.31036 | 4996 ft | 180 kts | 129° |
| 2026-05-09 17:01 | -21.51518 | 165.32077 | 4781 ft | 181 kts | 129° |
| 2026-05-09 17:01 | -21.52337 | 165.33200 | 4120 ft | 195 kts | 130° |
| 2026-05-09 17:01 | -21.53130 | 165.34293 | 3503 ft | 178 kts | 129° |
| 2026-05-09 17:01 | -21.53866 | 165.35311 | 3260 ft | 171 kts | 129° |
| 2026-05-09 17:02 | -21.54638 | 165.36373 | 3101 ft | 191 kts | 129° |
| 2026-05-09 17:02 | -21.55485 | 165.37540 | 2972 ft | 204 kts | 129° |
| 2026-05-09 17:02 | -21.56373 | 165.38757 | 2724 ft | 206 kts | 130° |
| 2026-05-09 17:02 | -21.57228 | 165.39942 | 2342 ft | 196 kts | 131° |
| 2026-05-09 17:03 | -21.58040 | 165.41061 | 1953 ft | 188 kts | 131° |
| 2026-05-09 17:04 | -21.63353 | 165.44165 | 784 ft | 161 kts | 271° |
| 2026-05-09 17:05 | -21.62868 | 165.43073 | 649 ft | 169 kts | 308° |
| 2026-05-09 17:05 | -21.62115 | 165.42136 | 485 ft | 158 kts | 307° |
| 2026-05-09 17:05 | -21.61482 | 165.41262 | 330 ft | 136 kts | 298° |
| 2026-05-09 17:05 | -21.61165 | 165.40439 | 55 ft | 103 kts | 279° |
| 2026-05-09 17:06 | -21.60997 | 165.39816 | -6 ft | 71 kts | 286° |
| 2026-05-09 17:06 | -21.60903 | 165.39526 | -3 ft | 12 kts | 293° |
| 2026-05-09 17:06 | -21.60874 | 165.39449 | -4 ft | 11 kts | 313° |
| 2026-05-09 17:06 | -21.60888 | 165.39462 | -4 ft | 10 kts | 107° |
| 2026-05-09 17:07 | -21.60910 | 165.39545 | -4 ft | 11 kts | 104° |
| 2026-05-09 17:07 | -21.60917 | 165.39573 | -4 ft | 13 kts | 107° |
| 2026-05-09 17:07 | -21.60976 | 165.39774 | -6 ft | 21 kts | 107° |
| 2026-05-09 17:07 | -21.61027 | 165.39926 | -9 ft | 21 kts | 120° |
| 2026-05-09 17:08 | -21.61062 | 165.40063 | -10 ft | 17 kts | 106° |
| 2026-05-09 17:08 | -21.60959 | 165.40114 | -7 ft | 0 kts | 16° |